Barry, Texas
Current Conditions -  °F | °C
As of 5:53 PM on Saturday 25 Oct 2014 (Local Time) from KCRS Reporting Station
Clear Clear  
Wind Chill: 29°   Ceiling: Unl
Heat Index: 29°   Visibility: 10mi
Dew Point: 16°   Wind: 5mph
Humidity: 44%   Direction: 190°S
Pressure: 30.08"   Gusts: NA
Location:  32.1°N, 96.64°W
Report Text: KCRS 252253Z AUTO 19004KT 10SM CLR 29/16 A3008 RMK AO2 SLP181 T02890156
Loading
Personal Weather Stations






























Interactive Weather Map
Tropical Storm Tracking
New forecast layout! Learn more

10-Day Weather Forecast

Advertisements
Track Severe Weather on mobile